Julesburg, Colorado
Current Conditions -  °F | °C
As of 7:55 AM on Saturday 20 Dec 2014 (Local Time) from KOGA Reporting Station
Clear Clear  
Wind Chill:   Ceiling: Unl
Heat Index: 17°   Visibility: 10mi
Dew Point: 15°   Wind: 8mph
Humidity: 90%   Direction: 250°WSW
Pressure: 30.01"   Gusts: NA
Location:  40.99°N, 102.26°W
Report Text: KOGA 201455Z AUTO 25007KT 10SM CLR M08/M09 A3001 RMK AO2 T10811095
Loading
Personal Weather Stations






























Interactive Weather Map New forecast layout! Learn more

10-Day Weather Forecast

Advertisements
Track Severe Weather on mobile